Rejestracja

Wszystkie dane podawane są w czasie UTC za wyjątkiem miejsc gdzie jest jednoznacznie podane, że jest inaczej. Dane podawane w serwisie mają charakter informacyjny!!!
Informacje w sprawie dostępu do serwisu pod numerem tel. +48 261-828-138

Aktualna Pogoda
 
Pogoda w Polsce
24°C Szczecin 28°C Suwałki 28°C Warszawa 25°C Poznan
26°C Opole 25°C Kraków 25°C Rzeszów
Więcej miast w Polsce

Pogoda w Europie
26°C Berlin 19°C Paryz 20°C Bruksela 20°C Oslo
28°C Praga 25°C Zagrzeb
Więcej miast w Europie

Metary wojskowe test
METAR EPBC 050700Z 12004KT CAVOK 29/13 Q1019=
METAR EPCE 050730Z 25004KT CAVOK 27/16 Q1018 RMK 274 051 2/2=
METAR EPDA 050730Z 23005KT 200V290 CAVOK 25/18 Q1017 RMK 247 065 6/6=
METAR EPDE 050730Z 00000KT 9999 28/17 Q1019 RMK 275 053 1/1=
METAR EPIR 050730Z 06004KT CAVOK 29/11 Q1018 RMK 285 034 4/1=
METAR EPLK 050730Z 10004KT CAVOK 29/16 Q1019 RMK 285 046 3/3=
METAR EPLY 050700Z VRB02KT CAVOK 28/17 Q1019 RMK 282 050 3/3=
METAR EPMB 050730Z 18004KT CAVOK 27/16 Q1018 RMK 269 050 6/6=
METAR EPMI 050700Z VRB02KT 9999 SCT140 BKN200 25/17 Q1019 RMK 249 063 6/4=
METAR EPMM 050730Z 00000KT CAVOK 29/12 Q1019 RMK 291 034 2/2=
METAR EPOK 050730Z 28006KT CAVOK 29/17 Q1017 RMK 285 050 5/1=
METAR EPPR 050700Z 15002KT 9999 BKN100 26/18 Q1017 RMK 263 060 6/6=
METAR EPPW 050730Z 12006KT CAVOK 31/10 Q1018 RMK 312 026 6/4=
METAR EPSN 050730Z 27004KT CAVOK 26/18 Q1018 RMK 255 063 6/4=
METAR EPTM 050700Z 00000KT CAVOK 26/14 Q1019 RMK 261 048 2/2=


 
Informacje ogólne
Pogoda
Warszawa
Temperatura: 28.3°C
Wiatr: 1.0 m/s
Ciśnienie: 1018.8 hPa
Zjawiska: Brak
Temp. max: 28.3 °C
Temp. min: 16.4 °C


Dane astronomiczne
Warszawa:
Dzien: 16:36 h
Noc: 07:24 h


Using HW VSP powered by HW group.

Prawa autorskie©2007 SSH SZ RP. Wszelkie prawa zastrzeżone.